createdAt,value
2023-01-29T00:08:50.110Z,87.35
2023-01-29T00:24:32.641Z,87.38
2023-01-29T00:40:15.624Z,87.6
2023-01-29T00:55:58.145Z,88.16
2023-01-29T01:11:41.303Z,88.62
2023-01-29T01:27:24.250Z,88.89
2023-01-29T01:43:07.190Z,88.55
2023-01-29T01:58:49.528Z,88.91
2023-01-29T02:14:31.897Z,90.34
2023-01-29T02:30:14.217Z,90.8
2023-01-29T02:45:56.661Z,91.01
2023-01-29T03:01:39.288Z,90.65
2023-01-29T03:17:22.087Z,90.61
2023-01-29T03:33:04.554Z,90.4
2023-01-29T03:48:47.029Z,90.69
2023-01-29T04:04:29.291Z,91.23
2023-01-29T04:20:11.954Z,91.49
2023-01-29T04:35:54.363Z,91.43
2023-01-29T04:51:37.308Z,91.96
2023-01-29T05:07:19.686Z,92.98
2023-01-29T05:23:02.432Z,94.31
2023-01-29T05:38:44.972Z,98.36
2023-01-29T05:54:27.929Z,100
2023-01-29T06:10:10.654Z,100
2023-01-29T06:25:53.626Z,100
2023-01-29T06:41:36.324Z,100
2023-01-29T06:57:19.034Z,100
2023-01-29T07:13:01.913Z,100
2023-01-29T07:28:44.610Z,100
2023-01-29T07:44:27.627Z,100
2023-01-29T08:00:10.315Z,100
2023-01-29T08:15:52.876Z,100
2023-01-29T08:31:35.017Z,100
2023-01-29T08:47:17.623Z,100
2023-01-29T09:03:00.551Z,100
2023-01-29T09:18:43.416Z,100
2023-01-29T09:34:26.260Z,100
2023-01-29T09:50:09.497Z,100
2023-01-29T10:05:52.391Z,100
2023-01-29T10:21:35.120Z,100
2023-01-29T10:37:17.633Z,100
2023-01-29T10:53:00.167Z,100
2023-01-29T11:08:43.174Z,98.57
2023-01-29T11:24:26.347Z,97.97
2023-01-29T11:40:08.817Z,94.7
2023-01-29T11:55:51.141Z,93.21
2023-01-29T12:11:33.837Z,92.38
2023-01-29T12:27:16.383Z,90.81
2023-01-29T12:42:58.737Z,89.78
2023-01-29T12:58:41.023Z,88.47
2023-01-29T12:59:28.449Z,87.58
2023-01-29T13:15:11.396Z,88.14
2023-01-29T13:30:53.961Z,88.94
2023-01-29T13:46:36.449Z,88.5
2023-01-29T14:02:18.950Z,89.49
2023-01-29T14:18:01.231Z,91.32
2023-01-29T14:33:43.649Z,94.72
2023-01-29T14:49:26.287Z,99.13
2023-01-29T15:05:09.008Z,100
2023-01-29T15:20:52.012Z,100
2023-01-29T15:36:35.000Z,100
2023-01-29T15:52:17.939Z,100
2023-01-29T16:08:00.786Z,100
2023-01-29T16:23:44.092Z,100
2023-01-29T16:39:26.688Z,100
2023-01-29T16:55:09.098Z,100
2023-01-29T17:10:51.768Z,100
2023-01-29T17:26:34.197Z,100
2023-01-29T17:42:16.887Z,100
2023-01-29T17:57:59.723Z,100
2023-01-29T18:13:42.031Z,100
2023-01-29T18:29:24.783Z,100
2023-01-29T18:45:07.541Z,100
2023-01-29T19:00:49.751Z,100
2023-01-29T19:16:32.735Z,100
2023-01-29T19:32:15.345Z,99.92
2023-01-29T19:47:58.308Z,99.68
2023-01-29T20:03:41.539Z,97.2
2023-01-29T20:19:23.799Z,95.45
2023-01-29T20:35:06.371Z,93.91
2023-01-29T20:50:48.765Z,94.92
2023-01-29T21:06:31.289Z,95.82
2023-01-29T21:22:14.402Z,95.24
2023-01-29T21:37:56.545Z,95.11
2023-01-29T21:53:39.619Z,94.87
2023-01-29T22:09:22.548Z,95.17
2023-01-29T22:25:04.914Z,94.87
2023-01-29T22:40:47.816Z,95.03
2023-01-29T22:56:30.155Z,93.81
2023-01-29T23:12:12.857Z,92.65
2023-01-29T23:27:55.330Z,91.64
2023-01-29T23:43:38.444Z,91.35
2023-01-29T23:59:21.207Z,90.83
